Time;durP1;ratioP1;P1;durP2;ratioP2;P2;SDS_P1;SDS_P2;PMS_P1;PMS_P2;Temp;Humidity;BMP_temperature;BMP_pressure;BME280_temperature;BME280_humidity;BME280_pressure;Samples;Min_cycle;Max_cycle;Signal;HPM_P1;HPM_P2
2022/03/02 00:02:23;;;;;;;49.25;29.95;;;;;;;3.39;95.04;102823.31;5069653;28;20445;-79
2022/03/02 00:04:48;;;;;;;46.85;30.70;;;;;;;3.38;95.24;102821.63;5051694;28;20139;-79
2022/03/02 00:07:14;;;;;;;51.55;30.77;;;;;;;3.38;95.27;102827.72;5069863;28;20404;-79
2022/03/02 00:09:40;;;;;;;50.88;30.67;;;;;;;3.38;95.31;102830.34;5051630;28;20113;-82
2022/03/02 00:12:05;;;;;;;49.88;30.00;;;;;;;3.41;95.28;102826.78;5069607;28;20036;-79
2022/03/02 00:14:31;;;;;;;47.90;30.15;;;;;;;3.43;95.48;102824.97;5070245;28;20103;-79
2022/03/02 00:16:56;;;;;;;48.40;30.08;;;;;;;3.46;95.78;102820.50;5069580;28;20475;-79
2022/03/02 00:19:22;;;;;;;48.67;29.40;;;;;;;3.48;95.78;102818.66;5069975;28;20029;-79
2022/03/02 00:21:47;;;;;;;54.15;32.80;;;;;;;3.50;95.82;102818.63;5070204;28;20513;-79
2022/03/02 00:24:12;;;;;;;49.60;30.52;;;;;;;3.51;96.04;102815.94;5070128;28;20044;-79
2022/03/02 00:26:38;;;;;;;48.78;31.23;;;;;;;3.53;96.10;102815.91;5055419;28;20064;-79
2022/03/02 00:29:05;;;;;;;53.03;31.45;;;;;;;3.55;96.02;102821.97;5055261;28;20306;-79
2022/03/02 00:31:31;;;;;;;50.22;31.75;;;;;;;3.57;96.24;102820.16;5073567;28;20041;-79
2022/03/02 00:33:57;;;;;;;55.15;30.40;;;;;;;3.59;96.51;102826.25;5073126;28;20028;-79
2022/03/02 00:36:23;;;;;;;53.17;33.55;;;;;;;3.62;96.42;102827.94;5073487;28;20093;-78
2022/03/02 00:38:49;;;;;;;54.40;30.92;;;;;;;3.63;96.43;102824.41;5073118;28;20116;-79
2022/03/02 00:41:14;;;;;;;52.38;31.95;;;;;;;3.65;96.45;102823.41;5055221;28;20028;-78
2022/03/02 00:43:39;;;;;;;49.97;31.20;;;;;;;3.66;96.30;102819.88;5073269;28;20033;-78
2022/03/02 00:46:05;;;;;;;51.47;32.03;;;;;;;3.68;96.31;102818.06;5073038;28;20021;-79
2022/03/02 00:48:31;;;;;;;51.45;32.05;;;;;;;3.69;96.25;102817.16;5054946;28;20170;-78
2022/03/02 00:50:56;;;;;;;61.47;30.98;;;;;;;3.71;96.09;102817.13;5072817;28;20500;-78
2022/03/02 00:53:22;;;;;;;51.00;31.33;;;;;;;3.72;96.08;102818.84;5073106;28;20368;-78
2022/03/02 00:55:48;;;;;;;49.55;30.00;;;;;;;3.71;96.17;102810.06;5072800;28;20348;-80
2022/03/02 00:58:13;;;;;;;54.70;31.92;;;;;;;3.72;95.91;102797.78;5054805;28;20039;-79
2022/03/02 01:00:38;;;;;;;52.83;30.33;;;;;;;3.72;95.87;102800.41;5073003;28;20028;-78
2022/03/02 01:03:04;;;;;;;48.35;30.42;;;;;;;3.72;96.05;102808.31;5072895;28;20406;-79
2022/03/02 01:05:30;;;;;;;47.40;30.77;;;;;;;3.71;95.79;102802.16;5072864;28;20431;-78
2022/03/02 01:07:55;;;;;;;50.28;30.10;;;;;;;3.72;95.90;102797.78;5073123;28;20102;-79
2022/03/02 01:10:20;;;;;;;47.80;30.63;;;;;;;3.73;95.80;102794.22;5054634;28;20040;-79
2022/03/02 01:12:46;;;;;;;48.72;29.17;;;;;;;3.72;95.12;102782.00;5072642;28;20138;-81
2022/03/02 01:15:13;;;;;;;47.28;29.42;;;;;;;3.74;95.33;102792.47;5072900;28;20539;-78
2022/03/02 01:17:39;;;;;;;53.38;29.95;;;;;;;3.73;95.08;102793.38;5054762;28;20075;-78
2022/03/02 01:20:07;;;;;;;48.95;30.83;;;;;;;3.71;94.90;102794.28;5054549;28;20051;-78
2022/03/02 01:22:33;;;;;;;52.30;30.90;;;;;;;3.71;95.02;102788.16;5054211;28;20049;-79
2022/03/02 01:24:59;;;;;;;46.85;30.58;;;;;;;3.70;94.86;102787.31;5072130;28;20036;-78
2022/03/02 01:27:25;;;;;;;49.38;30.77;;;;;;;3.69;94.81;102784.72;5054424;28;20134;-80
2022/03/02 01:29:53;;;;;;;46.90;29.50;;;;;;;3.68;94.69;102782.97;5072558;28;20119;-83
2022/03/02 01:32:20;;;;;;;44.25;30.30;;;;;;;3.66;94.74;102783.03;5072550;28;20461;-78
2022/03/02 01:34:46;;;;;;;51.53;30.75;;;;;;;3.64;94.78;102776.97;5072157;28;20052;-78
2022/03/02 01:37:11;;;;;;;48.38;30.20;;;;;;;3.60;95.04;102777.97;5071496;28;20032;-80
2022/03/02 01:39:37;;;;;;;52.10;30.73;;;;;;;3.58;94.67;102776.28;5071906;28;20387;-80
2022/03/02 01:42:03;;;;;;;51.03;30.58;;;;;;;3.54;94.77;102772.88;5071993;28;20520;-79
2022/03/02 01:44:28;;;;;;;50.13;30.58;;;;;;;3.50;95.14;102771.25;5037565;28;20119;-79
2022/03/02 01:46:54;;;;;;;51.70;30.92;;;;;;;3.45;95.26;102763.47;5072404;28;20040;-79
2022/03/02 01:49:20;;;;;;;47.33;29.05;;;;;;;3.43;95.26;102761.81;5072384;28;20044;-79
2022/03/02 01:51:45;;;;;;;51.13;29.95;;;;;;;3.41;95.28;102761.84;5071758;28;20440;-79
2022/03/02 01:54:11;;;;;;;52.83;30.70;;;;;;;3.41;95.25;102766.25;5072129;28;20048;-78
2022/03/02 01:56:36;;;;;;;49.55;31.90;;;;;;;3.40;95.73;102761.91;5072148;28;20039;-78
2022/03/02 01:59:04;;;;;;;49.22;30.77;;;;;;;3.39;95.76;102754.91;5071723;28;20441;-78
2022/03/02 02:01:30;;;;;;;48.58;30.45;;;;;;;3.37;95.65;102752.31;5054064;28;20083;-78
2022/03/02 02:03:56;;;;;;;51.83;31.60;;;;;;;3.35;95.97;102752.34;5071058;28;20409;-79
2022/03/02 02:06:22;;;;;;;51.88;31.25;;;;;;;3.34;96.13;102757.66;5071736;28;20028;-78
2022/03/02 02:08:47;;;;;;;49.03;31.02;;;;;;;3.32;96.00;102757.72;5072193;28;20043;-79
2022/03/02 02:11:13;;;;;;;54.10;30.67;;;;;;;3.30;96.02;102746.38;5053445;28;20089;-79
2022/03/02 02:13:39;;;;;;;49.15;32.15;;;;;;;3.29;96.03;102751.69;5071333;28;20112;-79
2022/03/02 02:16:06;;;;;;;52.13;32.22;;;;;;;3.29;95.99;102744.66;5071238;28;20506;-79
2022/03/02 02:18:32;;;;;;;47.63;30.48;;;;;;;3.29;95.95;102744.66;5071553;28;20035;-80
2022/03/02 02:21:08;;;;;;;47.42;29.13;;;;;;;3.29;95.95;102741.16;5071233;28;20116;-80
2022/03/02 02:23:35;;;;;;;48.90;30.58;;;;;;;3.30;95.91;102738.50;5036403;28;20052;-79
2022/03/02 02:26:01;;;;;;;51.38;31.38;;;;;;;3.30;95.55;102741.13;5071115;28;20115;-79
2022/03/02 02:28:28;;;;;;;48.42;30.05;;;;;;;3.30;95.57;102733.22;5071157;28;20083;-80
2022/03/02 02:30:55;;;;;;;53.65;31.35;;;;;;;3.31;95.62;102737.59;5071308;28;20036;-80
2022/03/02 02:33:21;;;;;;;47.15;30.70;;;;;;;3.31;95.38;102726.19;5053059;28;20059;-78
2022/03/02 02:35:47;;;;;;;48.42;29.98;;;;;;;3.32;95.28;102728.75;5070763;28;20032;-78
2022/03/02 02:38:13;;;;;;;52.30;30.45;;;;;;;3.33;95.01;102729.66;5070957;28;20036;-78
2022/03/02 02:40:39;;;;;;;54.38;31.83;;;;;;;3.33;94.93;102727.88;5070466;28;20098;-78
2022/03/02 02:43:06;;;;;;;47.78;30.80;;;;;;;3.33;95.29;102722.59;5070612;28;20037;-78
2022/03/02 02:45:31;;;;;;;49.67;30.40;;;;;;;3.33;95.08;102719.13;5070539;28;20040;-78
2022/03/02 02:47:58;;;;;;;48.50;30.55;;;;;;;3.33;95.21;102719.13;5069876;28;20040;-82
2022/03/02 02:50:29;;;;;;;47.83;29.70;;;;;;;3.32;94.88;102710.34;5070927;28;20086;-78
2022/03/02 02:52:56;;;;;;;;;;;;;;;3.32;94.90;102706.88;5071108;28;20029;-77
2022/03/02 02:55:25;;;;;;;47.55;30.50;;;;;;;3.32;94.79;102706.88;5070821;28;20348;-78
2022/03/02 02:57:50;;;;;;;47.15;30.08;;;;;;;3.31;94.81;102700.75;5052243;28;20020;-77
2022/03/02 03:00:18;;;;;;;49.70;31.55;;;;;;;3.31;94.75;102706.00;5070489;28;20021;-79
2022/03/02 03:02:50;;;;;;;46.97;29.95;;;;;;;3.31;94.84;102703.38;5070512;28;20052;-79
2022/03/02 03:05:17;;;;;;;;;;;;;;;3.31;94.84;102703.38;5052848;28;20334;-79
2022/03/02 03:07:45;;;;;;;43.90;29.02;;;;;;;3.31;94.96;102706.00;5070739;28;19908;-79
2022/03/02 03:10:12;;;;;;;49.40;30.30;;;;;;;3.31;94.97;102689.34;5052105;28;20033;-77
2022/03/02 03:12:38;;;;;;;48.38;30.33;;;;;;;3.30;95.13;102690.25;5070440;28;20077;-78
2022/03/02 03:15:06;;;;;;;49.83;31.00;;;;;;;3.30;95.12;102696.38;5070575;28;20433;-78
2022/03/02 03:17:32;;;;;;;46.83;29.42;;;;;;;3.30;95.24;102690.25;5070255;28;20028;-78
2022/03/02 03:19:57;;;;;;;48.20;30.92;;;;;;;3.31;95.27;102699.88;5070342;28;20051;-79
2022/03/02 03:22:23;;;;;;;46.78;30.38;;;;;;;3.32;95.05;102691.06;5070189;28;20201;-79
2022/03/02 03:24:48;;;;;;;46.28;29.15;;;;;;;3.32;95.17;102689.31;5070681;28;20063;-78
2022/03/02 03:27:14;;;;;;;48.33;30.75;;;;;;;3.33;95.23;102688.41;5070022;28;20147;-79
2022/03/02 03:29:39;;;;;;;49.03;31.20;;;;;;;3.33;95.50;102685.75;5035714;28;20469;-78
2022/03/02 03:32:06;;;;;;;49.88;30.52;;;;;;;3.35;95.45;102688.34;5054690;28;20070;-82
2022/03/02 03:34:31;;;;;;;47.65;30.33;;;;;;;3.35;95.68;102683.09;5072258;28;20128;-78
2022/03/02 03:36:57;;;;;;;47.08;30.00;;;;;;;3.35;95.54;102681.31;5070459;28;20132;-78
2022/03/02 03:39:23;;;;;;;46.65;31.38;;;;;;;3.35;95.62;102676.03;5069910;28;20028;-78
2022/03/02 03:41:48;;;;;;;51.45;31.38;;;;;;;3.37;95.49;102673.38;5070280;28;20447;-78
2022/03/02 03:44:14;;;;;;;51.67;30.55;;;;;;;3.37;95.44;102675.16;5052195;28;20044;-78
2022/03/02 03:46:39;;;;;;;50.42;32.25;;;;;;;3.37;95.37;102676.00;5070236;28;20112;-78
2022/03/02 03:49:05;;;;;;;47.40;28.83;;;;;;;3.38;95.29;102671.63;5070190;28;20024;-82
2022/03/02 03:51:30;;;;;;;48.60;30.92;;;;;;;3.38;94.68;102674.25;5070454;28;20045;-78
2022/03/02 03:53:55;;;;;;;49.08;30.73;;;;;;;3.36;94.92;102669.03;5070306;28;20044;-78
2022/03/02 03:56:21;;;;;;;49.42;30.73;;;;;;;3.36;94.67;102671.66;5051897;28;20084;-79
2022/03/02 03:58:47;;;;;;;49.83;31.60;;;;;;;3.35;94.69;102665.53;5053219;28;20532;-79
2022/03/02 04:01:12;;;;;;;50.67;30.38;;;;;;;3.35;94.22;102675.19;5073696;28;20415;-79
2022/03/02 04:03:38;;;;;;;48.53;29.58;;;;;;;3.33;94.21;102671.75;5074155;28;20333;-79
2022/03/02 04:06:03;;;;;;;47.28;30.10;;;;;;;3.30;94.07;102669.19;5073764;28;20031;-78
2022/03/02 04:08:29;;;;;;;48.40;30.50;;;;;;;3.29;93.67;102665.72;5073827;28;20396;-78
2022/03/02 04:10:54;;;;;;;47.15;30.27;;;;;;;3.27;93.78;102661.41;5073738;28;20040;-78
2022/03/02 04:13:19;;;;;;;46.00;29.30;;;;;;;3.25;93.68;102655.34;5073336;28;20425;-78
2022/03/02 04:15:45;;;;;;;47.55;30.42;;;;;;;3.21;93.63;102653.69;5055401;28;20185;-78
2022/03/02 04:18:11;;;;;;;48.40;30.25;;;;;;;3.18;93.63;102647.63;5073540;28;20064;-80
2022/03/02 04:20:37;;;;;;;47.40;30.20;;;;;;;3.15;93.57;102639.84;5073760;28;20486;-78
2022/03/02 04:23:04;;;;;;;46.05;30.17;;;;;;;3.12;93.88;102637.31;5073227;28;20086;-78
2022/03/02 04:25:29;;;;;;;48.20;30.55;;;;;;;3.09;93.77;102640.03;5073132;28;20104;-78
2022/03/02 04:27:55;;;;;;;46.72;30.45;;;;;;;3.06;93.99;102637.50;5073678;28;20034;-77
2022/03/02 04:30:20;;;;;;;48.05;29.42;;;;;;;3.04;94.11;102633.19;5073105;28;20059;-78
2022/03/02 04:32:46;;;;;;;50.28;30.60;;;;;;;3.02;94.09;102637.63;5073576;28;20028;-79
2022/03/02 04:35:12;;;;;;;44.05;29.48;;;;;;;3.01;94.29;102636.75;5055592;28;20481;-84
2022/03/02 04:37:39;;;;;;;48.83;31.05;;;;;;;2.98;94.58;102640.31;5055187;28;20433;-79
2022/03/02 04:40:06;;;;;;;51.53;31.17;;;;;;;2.99;94.59;102633.31;5055228;28;20406;-79
2022/03/02 04:42:32;;;;;;;45.90;30.85;;;;;;;2.99;94.89;102628.06;5073169;28;20028;-78
2022/03/02 04:44:58;;;;;;;52.55;30.27;;;;;;;2.99;94.79;102625.44;5054883;28;20033;-79
2022/03/02 04:47:23;;;;;;;45.95;29.98;;;;;;;3.00;95.10;102622.75;5073326;28;20044;-79
2022/03/02 04:49:48;;;;;;;47.95;30.92;;;;;;;3.02;95.24;102622.72;5055131;28;20073;-79
2022/03/02 04:52:14;;;;;;;48.85;31.27;;;;;;;3.02;94.92;102617.44;5073127;28;20036;-84
2022/03/02 04:57:23;;;;;;;44.38;29.30;;;;;;;3.03;94.77;102618.28;5058085;28;20115;-79
2022/03/02 04:59:48;;;;;;;44.55;29.42;;;;;;;3.05;94.75;102627.03;5055024;28;20460;-78
2022/03/02 05:02:14;;;;;;;48.05;29.92;;;;;;;3.05;94.83;102622.59;5054834;28;20043;-84
2022/03/02 05:04:39;;;;;;;47.47;29.35;;;;;;;3.06;94.53;102618.19;5073504;28;20121;-78
2022/03/02 05:07:04;;;;;;;42.42;28.55;;;;;;;3.06;94.73;102612.94;5072858;28;20341;-77
2022/03/02 05:09:30;;;;;;;47.35;29.45;;;;;;;3.06;94.45;102613.81;5055562;28;20509;-78
2022/03/02 05:11:55;;;;;;;41.75;28.20;;;;;;;3.07;94.43;102615.53;5072599;28;20476;-78
2022/03/02 05:14:20;;;;;;;48.97;28.95;;;;;;;3.08;94.13;102614.63;5072546;28;20400;-78
2022/03/02 05:16:46;;;;;;;47.80;29.77;;;;;;;3.09;94.07;102616.34;5054652;28;20414;-78
2022/03/02 05:19:11;;;;;;;46.45;29.60;;;;;;;3.11;94.01;102616.31;5054567;28;20032;-78
2022/03/02 05:21:37;;;;;;;44.28;29.15;;;;;;;3.10;93.91;102620.69;5072449;28;20064;-77
2022/03/02 05:24:02;;;;;;;43.45;29.67;;;;;;;3.11;93.77;102616.31;5072879;28;20456;-78
2022/03/02 05:26:28;;;;;;;45.03;28.60;;;;;;;3.11;94.02;102611.91;5072509;28;20464;-78
2022/03/02 05:28:53;;;;;;;45.05;29.17;;;;;;;3.12;93.74;102621.53;5072381;28;20029;-78
2022/03/02 05:31:20;;;;;;;47.03;28.08;;;;;;;3.13;93.54;102611.84;5054082;28;20096;-82
2022/03/02 05:33:46;;;;;;;44.13;28.55;;;;;;;3.14;93.55;102617.06;5072505;28;20096;-78
2022/03/02 05:36:11;;;;;;;46.70;28.80;;;;;;;3.14;93.23;102610.94;5072430;28;20048;-78
2022/03/02 05:38:36;;;;;;;42.38;27.70;;;;;;;3.15;93.31;102610.91;5072004;28;20085;-77
2022/03/02 05:41:02;;;;;;;46.03;29.38;;;;;;;3.15;92.87;102607.38;5054607;28;20033;-77
2022/03/02 05:43:27;;;;;;;44.38;28.20;;;;;;;3.15;92.68;102603.00;5072031;28;20033;-78
2022/03/02 05:45:53;;;;;;;43.47;27.95;;;;;;;3.15;92.72;102603.00;5072215;28;20125;-78
2022/03/02 05:48:18;;;;;;;47.65;27.88;;;;;;;3.14;92.26;102606.53;5072181;28;20029;-82
2022/03/02 05:50:43;;;;;;;46.63;28.98;;;;;;;3.16;92.48;102601.22;5072002;28;20517;-79
2022/03/02 05:53:09;;;;;;;44.05;29.27;;;;;;;3.17;92.39;102608.22;5054098;28;20098;-80
2022/03/02 05:55:36;;;;;;;45.03;27.65;;;;;;;3.15;92.40;102610.91;5037555;28;20048;-80
2022/03/02 05:58:01;;;;;;;44.88;27.50;;;;;;;3.15;92.53;102610.91;5072030;28;20112;-80
2022/03/02 06:00:27;;;;;;;43.67;27.52;;;;;;;3.14;92.50;102606.53;5037127;28;20111;-82
2022/03/02 06:02:52;;;;;;;40.80;27.83;;;;;;;3.14;92.37;102608.31;5053765;28;20376;-80
2022/03/02 06:05:17;;;;;;;45.35;27.70;;;;;;;3.13;92.48;102610.06;5037352;28;20372;-78
2022/03/02 06:07:43;;;;;;;47.97;27.80;;;;;;;3.13;92.66;102615.31;5053719;28;20033;-80
2022/03/02 06:10:09;;;;;;;45.85;27.90;;;;;;;3.12;92.39;102608.38;5037014;28;20120;-79
2022/03/02 06:12:34;;;;;;;44.13;27.65;;;;;;;3.13;92.40;102609.22;5053211;28;20044;-79
2022/03/02 06:15:00;;;;;;;45.22;28.70;;;;;;;3.12;92.59;102611.00;5071524;28;20384;-80
2022/03/02 06:17:26;;;;;;;45.15;28.38;;;;;;;3.11;92.49;102613.69;5071429;28;20314;-78
2022/03/02 06:19:52;;;;;;;43.28;28.17;;;;;;;3.11;92.43;102611.91;5071177;28;20123;-76
2022/03/02 06:22:23;;;;;;;44.45;28.25;;;;;;;3.11;92.61;102611.91;5049574;28;20049;-78
2022/03/02 06:24:51;;;;;;;40.67;27.65;;;;;;;3.11;92.51;102619.78;5051749;28;20094;-77
2022/03/02 06:27:20;;;;;;;42.88;27.27;;;;;;;3.11;92.48;102622.41;5050348;28;20065;-76
2022/03/02 06:29:46;;;;;;;44.65;27.70;;;;;;;3.11;92.65;102619.78;5051092;28;20092;-77
2022/03/02 06:32:11;;;;;;;52.05;28.65;;;;;;;3.10;92.23;102620.69;5033408;28;20446;-77
2022/03/02 06:34:36;;;;;;;45.40;27.05;;;;;;;3.11;92.39;102621.56;5052448;28;20033;-82
2022/03/02 06:37:02;;;;;;;43.30;27.83;;;;;;;3.12;92.28;102625.91;5053953;28;20029;-79
2022/03/02 06:39:27;;;;;;;39.33;26.20;;;;;;;3.12;92.22;102632.03;5055095;28;20485;-82
2022/03/02 06:42:17;;;;;;;43.00;28.38;;;;;;;3.15;92.09;102636.31;5055028;28;20041;-81
2022/03/02 06:44:59;;;;;;;45.88;28.15;;;;;;;3.16;92.29;102636.31;5050840;28;20048;-81
2022/03/02 06:47:29;;;;;;;43.35;27.98;;;;;;;3.17;92.20;102632.75;5051830;28;20116;-80
2022/03/02 06:50:05;;;;;;;44.85;27.40;;;;;;;3.20;92.15;102626.53;5052142;28;20037;-83
2022/03/02 06:52:40;;;;;;;43.25;28.17;;;;;;;3.22;92.00;102629.13;5051509;28;20040;-84
2022/03/02 06:55:18;;;;;;;47.53;27.00;;;;;;;3.24;91.57;102635.19;5048878;28;20073;-77
2022/03/02 06:57:50;;;;;;;40.17;27.20;;;;;;;3.29;90.88;102639.41;5050485;28;20037;-81
2022/03/02 07:00:16;;;;;;;42.47;27.05;;;;;;;3.32;90.96;102643.72;5049274;28;20360;-78
2022/03/02 07:03:07;;;;;;;44.83;27.42;;;;;;;3.34;90.69;102640.13;5050468;28;20155;-77
2022/03/02 07:05:33;;;;;;;43.90;26.30;;;;;;;3.38;90.48;102638.25;5050483;28;20113;-81
2022/03/02 07:08:03;;;;;;;47.83;27.58;;;;;;;3.43;90.30;102635.47;5048956;28;20460;-81
2022/03/02 07:10:33;;;;;;;47.08;27.70;;;;;;;3.47;90.46;102637.97;5049505;28;20037;-82
2022/03/02 07:13:01;;;;;;;42.53;27.60;;;;;;;3.51;90.15;102638.75;5050634;28;20084;-79
2022/03/02 07:15:28;;;;;;;40.40;26.85;;;;;;;3.55;90.25;102626.31;5050122;28;20025;-80
2022/03/02 07:17:53;;;;;;;38.63;26.92;;;;;;;3.59;89.80;102639.34;5048854;28;20477;-81
2022/03/02 07:20:19;;;;;;;45.67;27.92;;;;;;;3.60;89.66;102635.81;5049741;28;20037;-79
2022/03/02 07:22:50;;;;;;;41.58;27.08;;;;;;;3.68;89.41;102636.41;5060170;28;20048;-79
2022/03/02 07:25:21;;;;;;;41.00;27.33;;;;;;;3.75;89.21;102633.56;5070430;28;20029;-79
2022/03/02 07:27:47;;;;;;;41.75;25.77;;;;;;;3.84;89.09;102633.28;5069917;28;20033;-77
2022/03/02 07:30:13;;;;;;;42.05;27.45;;;;;;;3.91;88.32;102639.19;5070024;28;20036;-80
2022/03/02 07:32:45;;;;;;;39.15;26.77;;;;;;;3.95;87.92;102638.19;5070039;28;20029;-82
2022/03/02 07:35:11;;;;;;;42.38;26.23;;;;;;;4.01;87.94;102643.22;5070737;28;20028;-78
2022/03/02 07:37:37;;;;;;;42.80;25.73;;;;;;;4.04;87.14;102643.97;5051928;28;20033;-76
2022/03/02 07:40:03;;;;;;;41.67;26.77;;;;;;;4.06;86.97;102641.28;5069852;28;20032;-79
2022/03/02 07:42:31;;;;;;;41.47;27.05;;;;;;;4.12;86.71;102640.22;5069936;28;20161;-79
2022/03/02 07:44:56;;;;;;;40.78;25.77;;;;;;;4.18;86.62;102634.72;5070029;28;20420;-81
2022/03/02 07:47:23;;;;;;;40.78;26.92;;;;;;;4.24;86.21;102640.66;5070278;28;20036;-81
2022/03/02 07:49:49;;;;;;;38.97;26.40;;;;;;;4.33;85.99;102641.25;5070282;28;20113;-79
2022/03/02 07:52:20;;;;;;;48.35;26.52;;;;;;;4.40;85.72;102640.09;5052422;28;20032;-79
2022/03/02 07:54:51;;;;;;;42.78;26.63;;;;;;;4.48;85.63;102632.81;5052526;28;20080;-80
2022/03/02 07:57:19;;;;;;;43.15;25.65;;;;;;;4.57;85.26;102639.53;5070662;28;20025;-82
2022/03/02 07:59:45;;;;;;;35.88;23.88;;;;;;;4.59;83.68;102646.44;5052753;28;20029;-79
2022/03/02 08:02:12;;;;;;;44.95;24.55;;;;;;;4.70;83.40;102639.91;5070370;28;20433;-82
2022/03/02 08:04:40;;;;;;;45.40;26.17;;;;;;;4.79;83.89;102638.72;5070427;28;20121;-82
2022/03/02 08:07:06;;;;;;;49.25;25.00;;;;;;;4.85;82.86;102636.72;5070098;28;20048;-81
2022/03/02 08:09:32;;;;;;;44.53;26.17;;;;;;;4.96;83.27;102631.03;5051966;28;20123;-80
2022/03/02 08:11:59;;;;;;;36.40;24.35;;;;;;;5.02;81.55;102632.59;5070339;28;20056;-79
2022/03/02 08:14:25;;;;;;;38.83;25.00;;;;;;;5.13;81.28;102633.00;5070018;28;20377;-83
2022/03/02 08:16:52;;;;;;;41.20;24.45;;;;;;;5.20;80.62;102637.13;5069956;28;20140;-82
2022/03/02 08:19:18;;;;;;;40.45;25.52;;;;;;;5.28;80.08;102636.81;5070474;28;20025;-83
2022/03/02 08:21:50;;;;;;;34.30;23.33;;;;;;;5.34;79.61;102638.38;5070215;28;20033;-81
2022/03/02 08:24:16;;;;;;;;;;;;;;;5.41;79.49;102637.22;5070722;28;20056;-82
2022/03/02 08:26:44;;;;;;;39.22;22.92;;;;;;;5.49;78.90;102637.75;5071593;28;20383;-86
2022/03/02 08:29:11;;;;;;;33.35;23.38;;;;;;;5.62;78.67;102636.31;5070471;28;20033;-78
2022/03/02 08:31:39;;;;;;;35.45;23.45;;;;;;;5.67;77.53;102637.91;5070417;28;20117;-81
2022/03/02 08:34:07;;;;;;;35.88;22.73;;;;;;;5.72;76.76;102634.19;5070098;28;20126;-79
2022/03/02 08:36:34;;;;;;;36.30;24.10;;;;;;;5.81;75.47;102643.50;5069982;28;20024;-80
2022/03/02 08:39:08;;;;;;;35.92;23.15;;;;;;;5.95;76.24;102637.63;5051749;28;20112;-79
2022/03/02 08:41:35;;;;;;;34.25;24.13;;;;;;;6.06;74.16;102638.06;5051419;28;20119;-75
2022/03/02 08:44:02;;;;;;;34.53;22.75;;;;;;;6.15;73.08;102639.44;5051760;28;20078;-78
2022/03/02 08:46:28;;;;;;;34.40;22.23;;;;;;;6.27;73.24;102633.66;5071971;28;20136;-76
2022/03/02 08:48:54;;;;;;;34.80;22.13;;;;;;;6.45;72.36;102626.69;5054633;28;20032;-75
2022/03/02 08:51:22;;;;;;;33.63;22.58;;;;;;;6.67;71.17;102623.94;5055082;28;20047;-78
2022/03/02 08:53:50;;;;;;;31.98;22.15;;;;;;;6.86;70.41;102631.00;5072649;28;20036;-75
2022/03/02 08:56:16;;;;;;;32.47;22.23;;;;;;;7.06;68.24;102632.72;5055032;28;20028;-76
2022/03/02 08:58:42;;;;;;;35.97;22.52;;;;;;;7.42;68.73;102626.63;5073066;28;20086;-78
2022/03/02 09:01:11;;;;;;;30.48;21.20;;;;;;;7.95;66.03;102622.19;5054760;28;20460;-76
2022/03/02 09:03:36;;;;;;;28.80;20.88;;;;;;;8.70;62.15;102620.06;5073158;28;20052;-77
2022/03/02 09:06:10;;;;;;;34.22;22.00;;;;;;;9.52;59.15;102621.69;5072455;28;20437;-74
2022/03/02 09:08:36;;;;;;;26.00;19.00;;;;;;;10.79;56.19;102614.09;5054701;28;20024;-75
2022/03/02 09:11:02;;;;;;;28.60;18.67;;;;;;;11.73;47.47;102609.81;5054495;28;20097;-74
2022/03/02 09:13:28;;;;;;;27.75;18.75;;;;;;;12.82;44.66;102614.72;5072786;28;20123;-74
2022/03/02 09:15:54;;;;;;;27.63;18.95;;;;;;;13.49;41.73;102610.78;5072273;28;20528;-76
2022/03/02 09:18:19;;;;;;;26.65;17.63;;;;;;;13.91;39.59;102606.69;5072627;28;20167;-74
2022/03/02 09:20:48;;;;;;;26.38;17.45;;;;;;;14.56;38.65;102609.66;5072374;28;20119;-75
2022/03/02 09:23:16;;;;;;;25.67;17.00;;;;;;;15.03;35.98;102601.44;5072606;28;20045;-75
2022/03/02 09:25:45;;;;;;;22.40;16.33;;;;;;;15.18;34.22;102610.06;5072515;28;20428;-77
2022/03/02 09:28:11;;;;;;;25.38;17.60;;;;;;;14.94;34.85;102604.88;5072285;28;20401;-76
2022/03/02 09:30:37;;;;;;;26.08;16.80;;;;;;;15.01;36.95;102615.97;5072602;28;20038;-75
2022/03/02 09:33:10;;;;;;;25.75;18.08;;;;;;;14.80;38.55;102606.84;5072322;28;20032;-76
2022/03/02 09:35:36;;;;;;;26.45;19.05;;;;;;;15.08;39.29;102609.13;5072612;28;20440;-76
2022/03/02 09:38:01;;;;;;;28.08;18.50;;;;;;;14.50;38.87;102603.94;5072259;28;20142;-76
2022/03/02 09:40:29;;;;;;;27.88;18.67;;;;;;;14.31;38.88;102601.84;5072143;28;20063;-77
2022/03/02 09:43:05;;;;;;;28.48;19.38;;;;;;;13.91;40.37;102601.31;5072017;28;20350;-77
2022/03/02 09:45:33;;;;;;;27.65;18.30;;;;;;;13.33;41.53;102605.69;5072367;28;20454;-77
2022/03/02 09:48:00;;;;;;;24.80;17.92;;;;;;;12.88;41.97;102601.81;5072167;28;20372;-77
2022/03/02 09:50:31;;;;;;;24.15;17.95;;;;;;;12.63;42.33;102608.03;5072272;28;20063;-77
2022/03/02 09:53:01;;;;;;;30.70;18.10;;;;;;;12.30;43.31;102605.94;5072313;28;20116;-76
2022/03/02 09:55:27;;;;;;;29.73;19.45;;;;;;;12.53;44.19;102596.31;5071924;28;20115;-77
2022/03/02 09:57:55;;;;;;;30.45;20.27;;;;;;;12.65;44.59;102600.78;5072198;28;20052;-76
2022/03/02 10:00:23;;;;;;;33.40;20.42;;;;;;;12.37;45.47;102604.53;5071726;28;20024;-78
2022/03/02 10:02:51;;;;;;;30.38;20.48;;;;;;;12.44;44.92;102592.47;5053548;28;20105;-78
2022/03/02 10:05:21;;;;;;;30.27;20.38;;;;;;;12.54;45.44;102595.38;5072002;28;20044;-77
2022/03/02 10:08:07;;;;;;;29.00;19.73;;;;;;;12.77;44.39;102601.72;5071960;28;20047;-77
2022/03/02 10:10:38;;;;;;;33.40;19.17;;;;;;;12.29;44.76;102596.25;5071898;28;20063;-77
2022/03/02 10:13:08;;;;;;;30.20;19.65;;;;;;;12.85;46.09;102596.69;5071871;28;20130;-76
2022/03/02 10:15:34;;;;;;;28.88;19.98;;;;;;;13.31;44.30;102602.28;5053853;28;20032;-75
2022/03/02 10:18:01;;;;;;;28.77;19.13;;;;;;;13.70;43.08;102595.78;5071279;28;20039;-77
2022/03/02 10:20:31;;;;;;;27.92;20.90;;;;;;;13.86;42.95;102598.13;5071391;28;20438;-76
2022/03/02 10:23:30;;;;;;;31.83;19.52;;;;;;;14.33;40.71;102592.75;5071018;28;20120;-77
2022/03/02 10:26:15;;;;;;;33.40;22.35;;;;;;;14.77;41.66;102585.66;5071379;28;20437;-76
2022/03/02 10:29:00;;;;;;;27.75;19.85;;;;;;;16.17;37.66;102580.34;5071539;28;20089;-76
2022/03/02 10:31:48;;;;;;;31.30;20.50;;;;;;;16.48;36.55;102578.50;5071368;28;20020;-77
2022/03/02 10:34:26;;;;;;;32.97;19.92;;;;;;;16.78;34.70;102579.44;5071094;28;20108;-76
2022/03/02 10:37:08;;;;;;;29.13;20.33;;;;;;;17.74;33.00;102573.41;5071054;28;20052;-77
2022/03/02 10:39:41;;;;;;;26.98;18.50;;;;;;;17.85;34.37;102570.53;5071387;28;20029;-77
2022/03/02 10:42:16;;;;;;;22.85;17.73;;;;;;;17.98;32.08;102567.56;5071111;28;20064;-77
2022/03/02 10:45:02;;;;;;;27.05;18.02;;;;;;;17.52;32.25;102567.34;5070763;28;20119;-74
2022/03/02 10:47:29;;;;;;;27.58;17.73;;;;;;;16.57;33.42;102564.25;5071020;28;20040;-74
2022/03/02 10:50:00;;;;;;;27.10;18.75;;;;;;;16.70;34.51;102563.13;5070816;28;20047;-75
2022/03/02 10:52:26;;;;;;;23.88;18.30;;;;;;;16.30;35.21;102555.94;5070495;28;20099;-73
2022/03/02 10:54:55;;;;;;;27.23;18.63;;;;;;;16.59;34.31;102560.56;5070765;28;20033;-74
2022/03/02 10:57:24;;;;;;;27.63;18.60;;;;;;;17.04;33.79;102565.50;5070814;28;20055;-74
2022/03/02 10:59:52;;;;;;;28.52;18.17;;;;;;;16.84;34.07;102568.13;5070846;28;20036;-75
2022/03/02 11:02:22;;;;;;;25.58;18.30;;;;;;;16.82;35.02;102556.66;5071022;28;20040;-74
2022/03/02 11:04:48;;;;;;;24.95;18.52;;;;;;;16.12;35.99;102556.56;5070995;28;20116;-74
2022/03/02 11:07:16;;;;;;;24.45;18.20;;;;;;;16.22;34.85;102553.91;5070779;28;20032;-72
2022/03/02 11:09:47;;;;;;;24.75;17.13;;;;;;;16.11;34.92;102560.22;5069899;28;20464;-73
2022/03/02 11:12:14;;;;;;;27.92;18.45;;;;;;;15.40;37.46;102558.19;5071439;28;20032;-74
2022/03/02 11:14:55;;;;;;;23.55;18.25;;;;;;;14.78;39.98;102552.56;5070811;28;20028;-74
2022/03/02 11:17:21;;;;;;;;;;;;;;;14.87;39.02;102544.72;5071104;28;20127;-73
2022/03/02 11:19:47;;;;;;;25.40;18.10;;;;;;;14.92;38.62;102547.88;5071175;28;19916;-74
2022/03/02 11:22:16;;;;;;;32.75;17.63;;;;;;;14.41;39.21;102549.28;5070390;28;20356;-72